sensor_id;sensor_type;location;lat;lon;timestamp;pressure;altitude;pressure_sealevel;temperature;humidity
6435;BME280;3250;42.694;23.278;2023-04-26T00:01:06;93902.72;;;10.57;90.06
6435;BME280;3250;42.694;23.278;2023-04-26T00:03:32;93896.13;;;10.55;89.78
6435;BME280;3250;42.694;23.278;2023-04-26T00:05:59;93896.00;;;10.50;89.57
6435;BME280;3250;42.694;23.278;2023-04-26T00:08:30;93887.53;;;10.48;89.58
6435;BME280;3250;42.694;23.278;2023-04-26T00:10:55;93883.78;;;10.44;89.82
6435;BME280;3250;42.694;23.278;2023-04-26T00:13:21;93877.38;;;10.40;89.49
6435;BME280;3250;42.694;23.278;2023-04-26T00:15:46;93876.28;;;10.36;89.37
6435;BME280;3250;42.694;23.278;2023-04-26T00:18:11;93883.94;;;10.37;89.15
6435;BME280;3250;42.694;23.278;2023-04-26T00:20:37;93873.88;;;10.34;89.31
6435;BME280;3250;42.694;23.278;2023-04-26T00:23:03;93850.94;;;10.18;89.26
6435;BME280;3250;42.694;23.278;2023-04-26T00:25:28;93876.28;;;10.36;89.24
6435;BME280;3250;42.694;23.278;2023-04-26T00:27:54;93867.81;;;10.34;89.13
6435;BME280;3250;42.694;23.278;2023-04-26T00:30:20;93869.88;;;10.32;89.43
6435;BME280;3250;42.694;23.278;2023-04-26T00:32:45;93874.31;;;10.31;89.48
6435;BME280;3250;42.694;23.278;2023-04-26T00:35:12;93870.09;;;10.30;89.18
6435;BME280;3250;42.694;23.278;2023-04-26T00:37:37;93867.16;;;10.27;89.12
6435;BME280;3250;42.694;23.278;2023-04-26T00:40:03;93864.88;;;10.18;89.58
6435;BME280;3250;42.694;23.278;2023-04-26T00:42:30;93870.34;;;10.17;89.50
6435;BME280;3250;42.694;23.278;2023-04-26T00:44:55;93871.00;;;10.12;89.20
6435;BME280;3250;42.694;23.278;2023-04-26T00:47:22;93850.25;;;9.99;89.59
6435;BME280;3250;42.694;23.278;2023-04-26T00:49:48;93871.63;;;10.03;89.69
6435;BME280;3250;42.694;23.278;2023-04-26T00:52:14;93859.06;;;9.93;89.92
6435;BME280;3250;42.694;23.278;2023-04-26T00:54:40;93865.94;;;9.82;90.80
6435;BME280;3250;42.694;23.278;2023-04-26T00:57:06;93860.44;;;9.84;90.37
6435;BME280;3250;42.694;23.278;2023-04-26T00:59:34;93860.81;;;9.76;90.31
6435;BME280;3250;42.694;23.278;2023-04-26T01:02:02;93859.88;;;9.82;89.82
6435;BME280;3250;42.694;23.278;2023-04-26T01:04:28;93872.00;;;9.83;89.47
6435;BME280;3250;42.694;23.278;2023-04-26T01:06:54;93868.44;;;9.77;89.36
6435;BME280;3250;42.694;23.278;2023-04-26T01:09:20;93847.78;;;9.58;89.60
6435;BME280;3250;42.694;23.278;2023-04-26T01:11:46;93876.22;;;9.61;89.78
6435;BME280;3250;42.694;23.278;2023-04-26T01:14:13;93870.06;;;9.55;89.75
6435;BME280;3250;42.694;23.278;2023-04-26T01:16:39;93875.22;;;9.50;89.65
6435;BME280;3250;42.694;23.278;2023-04-26T01:19:11;93875.53;;;9.54;90.04
6435;BME280;3250;42.694;23.278;2023-04-26T01:21:37;93862.31;;;9.49;89.66
6435;BME280;3250;42.694;23.278;2023-04-26T01:24:03;93854.06;;;9.45;89.91
6435;BME280;3250;42.694;23.278;2023-04-26T01:26:29;93840.94;;;9.33;89.98
6435;BME280;3250;42.694;23.278;2023-04-26T01:28:55;93858.19;;;9.41;90.10
6435;BME280;3250;42.694;23.278;2023-04-26T01:31:21;93861.84;;;9.40;90.06
6435;BME280;3250;42.694;23.278;2023-04-26T01:33:46;93867.22;;;9.33;90.22
6435;BME280;3250;42.694;23.278;2023-04-26T01:36:11;93871.66;;;9.33;90.42
6435;BME280;3250;42.694;23.278;2023-04-26T01:38:37;93866.28;;;9.28;90.45
6435;BME280;3250;42.694;23.278;2023-04-26T01:41:02;93862.84;;;9.27;90.57
6435;BME280;3250;42.694;23.278;2023-04-26T01:43:28;93862.28;;;9.25;90.79
6435;BME280;3250;42.694;23.278;2023-04-26T01:45:53;93869.69;;;9.28;91.00
6435;BME280;3250;42.694;23.278;2023-04-26T01:48:19;93881.00;;;9.29;91.13
6435;BME280;3250;42.694;23.278;2023-04-26T01:50:44;93854.97;;;9.16;91.29
6435;BME280;3250;42.694;23.278;2023-04-26T01:53:09;93870.06;;;9.32;91.70
6435;BME280;3250;42.694;23.278;2023-04-26T01:55:35;93867.22;;;9.33;92.03
6435;BME280;3250;42.694;23.278;2023-04-26T01:58:00;93871.09;;;9.42;92.01
6435;BME280;3250;42.694;23.278;2023-04-26T02:00:28;93850.28;;;9.29;91.85
6435;BME280;3250;42.694;23.278;2023-04-26T02:02:57;93841.28;;;9.25;91.50
6435;BME280;3250;42.694;23.278;2023-04-26T02:05:22;93854.06;;;9.33;91.81
6435;BME280;3250;42.694;23.278;2023-04-26T02:07:49;93830.66;;;9.20;91.76
6435;BME280;3250;42.694;23.278;2023-04-26T02:10:14;93837.59;;;9.26;92.01
6435;BME280;3250;42.694;23.278;2023-04-26T02:12:39;93848.56;;;9.35;91.68
6435;BME280;3250;42.694;23.278;2023-04-26T02:15:07;93843.44;;;9.28;91.00
6435;BME280;3250;42.694;23.278;2023-04-26T02:17:32;93844.25;;;9.29;91.19
6435;BME280;3250;42.694;23.278;2023-04-26T02:19:58;93842.06;;;9.26;91.35
6435;BME280;3250;42.694;23.278;2023-04-26T02:22:23;93843.66;;;9.27;90.96
6435;BME280;3250;42.694;23.278;2023-04-26T02:24:51;93843.13;;;9.25;91.35
6435;BME280;3250;42.694;23.278;2023-04-26T02:27:18;93841.84;;;9.27;91.35
6435;BME280;3250;42.694;23.278;2023-04-26T02:29:43;93842.31;;;9.24;91.33
6435;BME280;3250;42.694;23.278;2023-04-26T02:32:09;93842.06;;;9.14;91.38
6435;BME280;3250;42.694;23.278;2023-04-26T02:34:34;93845.94;;;9.12;92.10
6435;BME280;3250;42.694;23.278;2023-04-26T02:37:00;93824.91;;;9.00;92.40
6435;BME280;3250;42.694;23.278;2023-04-26T02:39:25;93854.16;;;9.15;92.19
6435;BME280;3250;42.694;23.278;2023-04-26T02:41:51;93848.22;;;9.20;92.75
6435;BME280;3250;42.694;23.278;2023-04-26T02:44:16;93851.53;;;9.27;92.89
6435;BME280;3250;42.694;23.278;2023-04-26T02:46:42;93848.47;;;9.30;92.77
6435;BME280;3250;42.694;23.278;2023-04-26T02:49:07;93840.16;;;9.33;92.58
6435;BME280;3250;42.694;23.278;2023-04-26T02:51:32;93837.41;;;9.39;92.43
6435;BME280;3250;42.694;23.278;2023-04-26T02:53:58;93827.91;;;9.38;92.70
6435;BME280;3250;42.694;23.278;2023-04-26T02:56:24;93835.91;;;9.43;92.18
6435;BME280;3250;42.694;23.278;2023-04-26T02:58:49;93810.78;;;9.36;92.47
6435;BME280;3250;42.694;23.278;2023-04-26T03:01:15;93826.91;;;9.51;92.23
6435;BME280;3250;42.694;23.278;2023-04-26T03:03:41;93831.09;;;9.52;92.05
6435;BME280;3250;42.694;23.278;2023-04-26T03:06:07;93833.72;;;9.52;91.45
6435;BME280;3250;42.694;23.278;2023-04-26T03:08:32;93826.91;;;9.51;91.78
6435;BME280;3250;42.694;23.278;2023-04-26T03:10:59;93824.81;;;9.53;91.43
6435;BME280;3250;42.694;23.278;2023-04-26T03:13:26;93835.91;;;9.55;91.68
6435;BME280;3250;42.694;23.278;2023-04-26T03:15:51;93834.66;;;9.58;91.49
6435;BME280;3250;42.694;23.278;2023-04-26T03:18:17;93828.38;;;9.59;91.56
6435;BME280;3250;42.694;23.278;2023-04-26T03:20:44;93833.38;;;9.60;91.55
6435;BME280;3250;42.694;23.278;2023-04-26T03:23:09;93834.19;;;9.61;91.06
6435;BME280;3250;42.694;23.278;2023-04-26T03:25:35;93820.38;;;9.54;91.63
6435;BME280;3250;42.694;23.278;2023-04-26T03:28:00;93829.75;;;9.50;92.06
6435;BME280;3250;42.694;23.278;2023-04-26T03:30:26;93828.72;;;9.51;91.93
6435;BME280;3250;42.694;23.278;2023-04-26T03:32:52;93827.66;;;9.52;92.32
6435;BME280;3250;42.694;23.278;2023-04-26T03:35:17;93827.22;;;9.55;92.85
6435;BME280;3250;42.694;23.278;2023-04-26T03:37:43;93829.84;;;9.55;92.75
6435;BME280;3250;42.694;23.278;2023-04-26T03:40:09;93812.41;;;9.25;92.52
6435;BME280;3250;42.694;23.278;2023-04-26T03:42:35;93836.81;;;9.14;93.01
6435;BME280;3250;42.694;23.278;2023-04-26T03:45:01;93848.78;;;8.98;93.60
6435;BME280;3250;42.694;23.278;2023-04-26T03:47:30;93848.78;;;9.10;93.71
6435;BME280;3250;42.694;23.278;2023-04-26T03:49:56;93843.78;;;9.20;93.39
6435;BME280;3250;42.694;23.278;2023-04-26T03:52:22;93849.28;;;9.30;93.45
6435;BME280;3250;42.694;23.278;2023-04-26T03:54:47;93850.75;;;9.50;93.23
6435;BME280;3250;42.694;23.278;2023-04-26T03:57:13;93853.03;;;9.69;92.84
6435;BME280;3250;42.694;23.278;2023-04-26T03:59:38;93854.97;;;9.86;92.66
6435;BME280;3250;42.694;23.278;2023-04-26T04:02:04;93854.25;;;10.02;92.06
6435;BME280;3250;42.694;23.278;2023-04-26T04:04:29;93860.41;;;10.19;91.58
6435;BME280;3250;42.694;23.278;2023-04-26T04:06:55;93833.41;;;10.24;90.99
6435;BME280;3250;42.694;23.278;2023-04-26T04:09:20;93854.38;;;10.47;90.31
6435;BME280;3250;42.694;23.278;2023-04-26T04:11:46;93866.47;;;10.59;90.12
6435;BME280;3250;42.694;23.278;2023-04-26T04:14:11;93862.78;;;10.61;88.86
6435;BME280;3250;42.694;23.278;2023-04-26T04:16:37;93860.97;;;10.61;88.53
6435;BME280;3250;42.694;23.278;2023-04-26T04:19:02;93875.13;;;10.72;88.80
6435;BME280;3250;42.694;23.278;2023-04-26T04:21:28;93873.44;;;10.82;89.01
6435;BME280;3250;42.694;23.278;2023-04-26T04:23:53;93871.22;;;10.91;88.96
6435;BME280;3250;42.694;23.278;2023-04-26T04:26:19;93878.50;;;11.01;88.70
6435;BME280;3250;42.694;23.278;2023-04-26T04:28:45;93874.69;;;11.08;88.41
6435;BME280;3250;42.694;23.278;2023-04-26T04:31:11;93859.53;;;11.15;88.36
6435;BME280;3250;42.694;23.278;2023-04-26T04:33:37;93881.03;;;11.41;87.89
6435;BME280;3250;42.694;23.278;2023-04-26T04:36:03;93881.50;;;11.54;87.14
6435;BME280;3250;42.694;23.278;2023-04-26T04:38:29;93869.03;;;11.66;87.03
6435;BME280;3250;42.694;23.278;2023-04-26T04:40:55;93879.88;;;11.87;85.63
6435;BME280;3250;42.694;23.278;2023-04-26T04:43:21;93885.59;;;12.17;84.75
6435;BME280;3250;42.694;23.278;2023-04-26T04:45:47;93890.78;;;12.56;83.13
6435;BME280;3250;42.694;23.278;2023-04-26T04:48:15;93862.78;;;12.55;82.09
6435;BME280;3250;42.694;23.278;2023-04-26T04:50:42;93898.19;;;13.02;82.05
6435;BME280;3250;42.694;23.278;2023-04-26T04:53:07;93890.19;;;13.19;81.28
6435;BME280;3250;42.694;23.278;2023-04-26T04:55:33;93892.78;;;13.14;79.61
6435;BME280;3250;42.694;23.278;2023-04-26T04:58:01;93892.44;;;13.10;79.57
6435;BME280;3250;42.694;23.278;2023-04-26T05:00:28;93890.50;;;13.01;79.33
6435;BME280;3250;42.694;23.278;2023-04-26T05:02:54;93888.66;;;13.01;80.34
6435;BME280;3250;42.694;23.278;2023-04-26T05:05:19;93850.97;;;12.84;80.95
6435;BME280;3250;42.694;23.278;2023-04-26T05:07:45;93888.22;;;13.36;80.99
6435;BME280;3250;42.694;23.278;2023-04-26T05:10:10;93894.00;;;13.65;78.48
6435;BME280;3250;42.694;23.278;2023-04-26T05:12:36;93877.59;;;13.63;77.56
6435;BME280;3250;42.694;23.278;2023-04-26T05:15:02;93892.22;;;13.76;77.11
6435;BME280;3250;42.694;23.278;2023-04-26T05:17:28;93893.34;;;13.85;77.38
6435;BME280;3250;42.694;23.278;2023-04-26T05:19:56;93890.22;;;13.93;77.51
6435;BME280;3250;42.694;23.278;2023-04-26T05:22:21;93893.19;;;14.02;76.56
6435;BME280;3250;42.694;23.278;2023-04-26T05:24:47;93892.69;;;14.10;75.83
6435;BME280;3250;42.694;23.278;2023-04-26T05:27:13;93898.31;;;14.18;75.86
6435;BME280;3250;42.694;23.278;2023-04-26T05:29:38;93885.13;;;14.23;75.94
6435;BME280;3250;42.694;23.278;2023-04-26T05:32:04;93901.31;;;14.37;74.73
6435;BME280;3250;42.694;23.278;2023-04-26T05:34:30;93902.75;;;14.50;75.35
6435;BME280;3250;42.694;23.278;2023-04-26T05:36:56;93905.03;;;14.93;74.91
6435;BME280;3250;42.694;23.278;2023-04-26T05:39:21;93907.78;;;15.44;72.12
6435;BME280;3250;42.694;23.278;2023-04-26T05:41:47;93917.09;;;15.62;71.96
6435;BME280;3250;42.694;23.278;2023-04-26T05:44:12;93920.28;;;15.64;71.06
6435;BME280;3250;42.694;23.278;2023-04-26T05:46:38;93917.84;;;15.52;70.80
6435;BME280;3250;42.694;23.278;2023-04-26T05:49:04;93920.25;;;15.38;70.24
6435;BME280;3250;42.694;23.278;2023-04-26T05:51:29;93928.72;;;15.30;71.52
6435;BME280;3250;42.694;23.278;2023-04-26T05:53:55;93915.94;;;15.17;71.37
6435;BME280;3250;42.694;23.278;2023-04-26T05:56:21;93918.88;;;15.26;72.23
6435;BME280;3250;42.694;23.278;2023-04-26T05:58:48;93925.00;;;15.36;70.43
6435;BME280;3250;42.694;23.278;2023-04-26T06:01:13;93930.38;;;15.62;70.29
6435;BME280;3250;42.694;23.278;2023-04-26T06:03:39;93928.50;;;15.88;69.72
6435;BME280;3250;42.694;23.278;2023-04-26T06:06:04;93934.88;;;16.07;69.51
6435;BME280;3250;42.694;23.278;2023-04-26T06:08:30;93935.41;;;16.14;68.48
6435;BME280;3250;42.694;23.278;2023-04-26T06:10:55;93934.59;;;16.13;67.88
6435;BME280;3250;42.694;23.278;2023-04-26T06:13:20;93930.38;;;16.07;67.71
6435;BME280;3250;42.694;23.278;2023-04-26T06:15:46;93933.03;;;16.07;66.65
6435;BME280;3250;42.694;23.278;2023-04-26T06:18:11;93932.19;;;16.22;67.02
6435;BME280;3250;42.694;23.278;2023-04-26T06:20:37;93913.34;;;16.23;65.65
6435;BME280;3250;42.694;23.278;2023-04-26T06:23:02;93942.00;;;16.32;66.72
6435;BME280;3250;42.694;23.278;2023-04-26T06:25:27;93943.59;;;16.33;66.65
6435;BME280;3250;42.694;23.278;2023-04-26T06:27:53;93945.72;;;16.41;65.44
6435;BME280;3250;42.694;23.278;2023-04-26T06:30:18;93939.34;;;16.42;64.75
6435;BME280;3250;42.694;23.278;2023-04-26T06:32:44;93940.44;;;16.20;63.58
6435;BME280;3250;42.694;23.278;2023-04-26T06:35:10;93946.28;;;16.22;63.87
6435;BME280;3250;42.694;23.278;2023-04-26T06:37:36;93945.19;;;16.18;64.09
6435;BME280;3250;42.694;23.278;2023-04-26T06:40:02;93937.25;;;16.23;65.57
6435;BME280;3250;42.694;23.278;2023-04-26T06:42:27;93943.56;;;16.48;64.57
6435;BME280;3250;42.694;23.278;2023-04-26T06:44:53;93931.06;;;16.53;64.28
6435;BME280;3250;42.694;23.278;2023-04-26T06:47:18;93939.28;;;16.67;63.50
6435;BME280;3250;42.694;23.278;2023-04-26T06:49:44;93949.34;;;16.80;63.05
6435;BME280;3250;42.694;23.278;2023-04-26T06:52:09;93958.34;;;16.94;62.81
6435;BME280;3250;42.694;23.278;2023-04-26T06:54:35;93960.53;;;16.77;62.12
6435;BME280;3250;42.694;23.278;2023-04-26T06:57:00;93954.84;;;16.99;63.28
6435;BME280;3250;42.694;23.278;2023-04-26T06:59:26;93958.47;;;17.23;61.35
6435;BME280;3250;42.694;23.278;2023-04-26T07:01:52;93956.59;;;17.73;62.72
6435;BME280;3250;42.694;23.278;2023-04-26T07:04:18;93970.88;;;18.21;62.27
6435;BME280;3250;42.694;23.278;2023-04-26T07:06:45;93965.78;;;18.54;60.00
6435;BME280;3250;42.694;23.278;2023-04-26T07:09:10;93948.00;;;18.73;59.01
6435;BME280;3250;42.694;23.278;2023-04-26T07:11:36;93956.88;;;18.92;58.71
6435;BME280;3250;42.694;23.278;2023-04-26T07:14:02;93954.47;;;19.14;58.33
6435;BME280;3250;42.694;23.278;2023-04-26T07:16:28;93960.81;;;19.18;55.99
6435;BME280;3250;42.694;23.278;2023-04-26T07:18:53;93960.22;;;19.21;55.74
6435;BME280;3250;42.694;23.278;2023-04-26T07:21:22;93953.16;;;19.12;56.04
6435;BME280;3250;42.694;23.278;2023-04-26T07:23:47;93949.03;;;19.01;56.35
6435;BME280;3250;42.694;23.278;2023-04-26T07:26:13;93946.81;;;19.08;56.40
6435;BME280;3250;42.694;23.278;2023-04-26T07:28:38;93954.34;;;19.25;54.99
6435;BME280;3250;42.694;23.278;2023-04-26T07:31:04;93958.44;;;18.69;53.04
6435;BME280;3250;42.694;23.278;2023-04-26T07:33:29;93956.19;;;18.53;55.15
6435;BME280;3250;42.694;23.278;2023-04-26T07:35:56;93955.31;;;17.99;54.34
6435;BME280;3250;42.694;23.278;2023-04-26T07:38:22;93959.97;;;17.89;55.82
6435;BME280;3250;42.694;23.278;2023-04-26T07:40:48;93966.50;;;17.67;56.34
6435;BME280;3250;42.694;23.278;2023-04-26T07:43:13;93966.09;;;17.40;56.97
6435;BME280;3250;42.694;23.278;2023-04-26T07:45:40;93970.16;;;17.27;56.55
6435;BME280;3250;42.694;23.278;2023-04-26T07:48:06;93962.53;;;17.11;55.56
6435;BME280;3250;42.694;23.278;2023-04-26T07:50:31;93966.81;;;16.96;55.45
6435;BME280;3250;42.694;23.278;2023-04-26T07:52:56;93974.88;;;16.76;55.85
6435;BME280;3250;42.694;23.278;2023-04-26T07:55:22;93969.56;;;16.71;57.04
6435;BME280;3250;42.694;23.278;2023-04-26T07:57:47;93962.91;;;16.74;57.67
6435;BME280;3250;42.694;23.278;2023-04-26T08:00:13;93968.00;;;16.65;57.62
6435;BME280;3250;42.694;23.278;2023-04-26T08:02:40;93973.84;;;16.62;58.42
6435;BME280;3250;42.694;23.278;2023-04-26T08:05:06;93974.91;;;16.46;57.44
6435;BME280;3250;42.694;23.278;2023-04-26T08:07:31;93968.84;;;16.25;57.30
6435;BME280;3250;42.694;23.278;2023-04-26T08:09:57;93972.03;;;16.07;57.71
6435;BME280;3250;42.694;23.278;2023-04-26T08:12:22;93965.38;;;16.09;59.87
6435;BME280;3250;42.694;23.278;2023-04-26T08:14:48;93970.69;;;16.40;59.58
6435;BME280;3250;42.694;23.278;2023-04-26T08:17:13;93971.69;;;16.74;60.29
6435;BME280;3250;42.694;23.278;2023-04-26T08:19:39;93980.69;;;16.88;58.53
6435;BME280;3250;42.694;23.278;2023-04-26T08:22:05;93967.34;;;17.04;58.60
6435;BME280;3250;42.694;23.278;2023-04-26T08:24:31;93956.94;;;17.07;57.16
6435;BME280;3250;42.694;23.278;2023-04-26T08:26:57;93963.66;;;16.94;55.77
6435;BME280;3250;42.694;23.278;2023-04-26T08:29:26;93973.03;;;16.77;58.11
6435;BME280;3250;42.694;23.278;2023-04-26T08:31:52;93971.06;;;16.97;59.17
6435;BME280;3250;42.694;23.278;2023-04-26T08:34:18;93971.84;;;17.08;56.38
6435;BME280;3250;42.694;23.278;2023-04-26T08:36:43;93974.72;;;17.17;56.43
6435;BME280;3250;42.694;23.278;2023-04-26T08:39:10;93960.94;;;17.10;56.27
6435;BME280;3250;42.694;23.278;2023-04-26T08:41:42;93957.16;;;17.21;57.39
6435;BME280;3250;42.694;23.278;2023-04-26T08:44:07;93970.38;;;17.31;55.53
6435;BME280;3250;42.694;23.278;2023-04-26T08:46:38;93967.72;;;17.36;56.02
6435;BME280;3250;42.694;23.278;2023-04-26T08:49:25;93972.50;;;17.34;54.01
6435;BME280;3250;42.694;23.278;2023-04-26T08:51:56;93970.38;;;17.31;55.62
6435;BME280;3250;42.694;23.278;2023-04-26T08:54:23;93970.66;;;17.34;56.27
6435;BME280;3250;42.694;23.278;2023-04-26T08:56:50;93962.75;;;17.19;53.97
6435;BME280;3250;42.694;23.278;2023-04-26T08:59:17;93961.72;;;17.10;55.22
6435;BME280;3250;42.694;23.278;2023-04-26T09:01:43;93964.66;;;17.09;57.15
6435;BME280;3250;42.694;23.278;2023-04-26T09:04:09;93963.09;;;16.97;55.54
6435;BME280;3250;42.694;23.278;2023-04-26T09:06:36;93973.19;;;16.95;55.20
6435;BME280;3250;42.694;23.278;2023-04-26T09:09:02;93976.41;;;16.92;56.09
6435;BME280;3250;42.694;23.278;2023-04-26T09:11:51;93962.91;;;16.84;56.33
6435;BME280;3250;42.694;23.278;2023-04-26T09:14:18;93975.84;;;16.95;56.04
6435;BME280;3250;42.694;23.278;2023-04-26T09:16:43;93978.47;;;17.06;56.39
6435;BME280;3250;42.694;23.278;2023-04-26T09:19:09;93981.19;;;17.01;56.25
6435;BME280;3250;42.694;23.278;2023-04-26T09:21:41;93973.97;;;17.06;57.22
6435;BME280;3250;42.694;23.278;2023-04-26T09:24:08;93989.84;;;17.26;54.88
6435;BME280;3250;42.694;23.278;2023-04-26T09:26:33;93977.88;;;17.29;54.53
6435;BME280;3250;42.694;23.278;2023-04-26T09:29:16;93973.63;;;17.23;52.96
6435;BME280;3250;42.694;23.278;2023-04-26T09:31:47;93976.66;;;16.96;53.50
6435;BME280;3250;42.694;23.278;2023-04-26T09:34:14;93958.91;;;16.81;54.64
6435;BME280;3250;42.694;23.278;2023-04-26T09:36:49;93972.94;;;16.97;55.70
6435;BME280;3250;42.694;23.278;2023-04-26T09:39:28;93959.41;;;16.88;55.08
6435;BME280;3250;42.694;23.278;2023-04-26T09:41:56;93964.38;;;17.05;56.30
6435;BME280;3250;42.694;23.278;2023-04-26T09:44:22;93964.91;;;17.07;54.85
6435;BME280;3250;42.694;23.278;2023-04-26T09:49:25;93975.97;;;17.34;52.34
6435;BME280;3250;42.694;23.278;2023-04-26T09:52:04;93969.22;;;17.47;54.69
6435;BME280;3250;42.694;23.278;2023-04-26T09:54:46;93978.75;;;17.58;53.66
6435;BME280;3250;42.694;23.278;2023-04-26T09:57:14;93976.59;;;17.65;51.87
6435;BME280;3250;42.694;23.278;2023-04-26T09:59:44;93962.22;;;17.71;52.88
6435;BME280;3250;42.694;23.278;2023-04-26T10:02:23;93965.34;;;17.79;51.86
6435;BME280;3250;42.694;23.278;2023-04-26T10:04:52;93963.72;;;17.83;51.63
6435;BME280;3250;42.694;23.278;2023-04-26T10:07:20;93960.97;;;17.98;52.85
6435;BME280;3250;42.694;23.278;2023-04-26T10:09:46;93947.13;;;17.96;50.65
6435;BME280;3250;42.694;23.278;2023-04-26T10:12:13;93962.16;;;18.16;49.26
6435;BME280;3250;42.694;23.278;2023-04-26T10:14:39;93966.63;;;18.20;49.01
6435;BME280;3250;42.694;23.278;2023-04-26T10:17:06;93956.44;;;17.98;48.30
6435;BME280;3250;42.694;23.278;2023-04-26T10:19:33;93947.19;;;17.86;49.90
6435;BME280;3250;42.694;23.278;2023-04-26T10:22:07;93961.56;;;17.85;49.75
6435;BME280;3250;42.694;23.278;2023-04-26T10:24:36;93963.22;;;17.81;50.31
6435;BME280;3250;42.694;23.278;2023-04-26T10:27:02;93959.34;;;17.63;50.04
6435;BME280;3250;42.694;23.278;2023-04-26T10:32:19;93938.09;;;17.48;48.62
6435;BME280;3250;42.694;23.278;2023-04-26T10:35:11;93958.53;;;17.57;48.93
6435;BME280;3250;42.694;23.278;2023-04-26T10:40:35;93950.19;;;17.74;50.83
6435;BME280;3250;42.694;23.278;2023-04-26T10:45:35;93951.44;;;18.21;49.39
6435;BME280;3250;42.694;23.278;2023-04-26T10:48:20;93952.63;;;18.04;45.61
6435;BME280;3250;42.694;23.278;2023-04-26T10:54:11;93953.44;;;17.71;48.12
6435;BME280;3250;42.694;23.278;2023-04-26T10:59:08;93946.34;;;17.51;49.00
6435;BME280;3250;42.694;23.278;2023-04-26T11:01:34;93945.31;;;17.42;49.37
6435;BME280;3250;42.694;23.278;2023-04-26T11:04:08;93940.00;;;17.42;49.23
6435;BME280;3250;42.694;23.278;2023-04-26T11:06:50;93949.50;;;17.63;50.84
6435;BME280;3250;42.694;23.278;2023-04-26T11:09:36;93951.00;;;17.75;49.93
6435;BME280;3250;42.694;23.278;2023-04-26T11:12:09;93931.56;;;17.74;48.41
6435;BME280;3250;42.694;23.278;2023-04-26T11:14:35;93950.19;;;17.79;47.67
6435;BME280;3250;42.694;23.278;2023-04-26T11:17:08;93921.63;;;17.85;48.28
6435;BME280;3250;42.694;23.278;2023-04-26T11:19:34;93937.59;;;18.19;48.36
6435;BME280;3250;42.694;23.278;2023-04-26T11:22:00;93920.09;;;18.07;46.17
6435;BME280;3250;42.694;23.278;2023-04-26T11:24:29;93944.75;;;18.23;47.42
6435;BME280;3250;42.694;23.278;2023-04-26T11:26:55;93945.84;;;18.17;48.58
6435;BME280;3250;42.694;23.278;2023-04-26T11:29:22;93951.38;;;17.97;46.17
6435;BME280;3250;42.694;23.278;2023-04-26T11:31:55;93956.03;;;17.76;46.31
6435;BME280;3250;42.694;23.278;2023-04-26T11:34:22;93949.19;;;17.70;47.22
6435;BME280;3250;42.694;23.278;2023-04-26T11:36:55;93951.78;;;17.80;47.83
6435;BME280;3250;42.694;23.278;2023-04-26T11:39:21;93948.31;;;17.75;44.89
6435;BME280;3250;42.694;23.278;2023-04-26T11:41:46;93932.56;;;17.39;45.36
6435;BME280;3250;42.694;23.278;2023-04-26T11:44:12;93953.69;;;17.69;48.01
6435;BME280;3250;42.694;23.278;2023-04-26T11:46:41;93951.13;;;17.93;47.38
6435;BME280;3250;42.694;23.278;2023-04-26T11:49:07;93954.72;;;17.73;44.22
6435;BME280;3250;42.694;23.278;2023-04-26T11:51:33;93951.25;;;17.73;45.96
6435;BME280;3250;42.694;23.278;2023-04-26T11:53:59;93933.22;;;17.65;46.87
6435;BME280;3250;42.694;23.278;2023-04-26T11:56:25;93931.56;;;17.74;46.93
6435;BME280;3250;42.694;23.278;2023-04-26T11:58:51;93956.03;;;17.81;44.99
6435;BME280;3250;42.694;23.278;2023-04-26T12:01:27;93944.00;;;17.84;46.50
6435;BME280;3250;42.694;23.278;2023-04-26T12:03:56;93941.81;;;17.91;46.56
6435;BME280;3250;42.694;23.278;2023-04-26T12:06:31;93941.53;;;17.97;47.80
6435;BME280;3250;42.694;23.278;2023-04-26T12:09:01;93947.63;;;17.98;46.78
6435;BME280;3250;42.694;23.278;2023-04-26T12:11:29;93948.97;;;17.95;45.59
6435;BME280;3250;42.694;23.278;2023-04-26T12:13:57;93941.81;;;17.91;44.73
6435;BME280;3250;42.694;23.278;2023-04-26T12:16:23;93947.25;;;17.76;46.43
6435;BME280;3250;42.694;23.278;2023-04-26T12:18:49;93950.19;;;17.74;46.45
6435;BME280;3250;42.694;23.278;2023-04-26T12:21:16;93940.72;;;17.63;46.75
6435;BME280;3250;42.694;23.278;2023-04-26T12:23:41;93931.75;;;17.44;46.71
6435;BME280;3250;42.694;23.278;2023-04-26T12:26:11;93935.16;;;17.49;47.02
6435;BME280;3250;42.694;23.278;2023-04-26T12:28:36;93928.47;;;17.57;47.24
6435;BME280;3250;42.694;23.278;2023-04-26T12:31:02;93936.75;;;17.55;47.09
6435;BME280;3250;42.694;23.278;2023-04-26T12:33:28;93936.47;;;17.62;46.20
6435;BME280;3250;42.694;23.278;2023-04-26T12:35:55;93941.75;;;17.57;47.10
6435;BME280;3250;42.694;23.278;2023-04-26T12:38:21;93934.69;;;17.42;46.24
6435;BME280;3250;42.694;23.278;2023-04-26T12:40:47;93932.88;;;17.38;46.23
6435;BME280;3250;42.694;23.278;2023-04-26T12:43:13;93925.47;;;17.29;47.01
6435;BME280;3250;42.694;23.278;2023-04-26T12:45:39;93934.88;;;17.12;47.23
6435;BME280;3250;42.694;23.278;2023-04-26T12:48:05;93928.97;;;17.15;48.77
6435;BME280;3250;42.694;23.278;2023-04-26T12:50:30;93923.13;;;17.13;48.65
6435;BME280;3250;42.694;23.278;2023-04-26T12:52:56;93938.03;;;17.14;47.01
6435;BME280;3250;42.694;23.278;2023-04-26T12:55:21;93904.69;;;16.82;45.00
6435;BME280;3250;42.694;23.278;2023-04-26T12:57:47;93936.09;;;16.75;45.18
6435;BME280;3250;42.694;23.278;2023-04-26T13:00:14;93927.88;;;16.51;46.16
6435;BME280;3250;42.694;23.278;2023-04-26T13:02:40;93946.47;;;16.46;48.52
6435;BME280;3250;42.694;23.278;2023-04-26T13:05:06;93938.56;;;16.31;49.80
6435;BME280;3250;42.694;23.278;2023-04-26T13:07:34;93936.97;;;16.20;50.24
6435;BME280;3250;42.694;23.278;2023-04-26T13:10:00;93938.28;;;16.17;49.46
6435;BME280;3250;42.694;23.278;2023-04-26T13:12:26;93943.34;;;16.19;49.94
6435;BME280;3250;42.694;23.278;2023-04-26T13:14:52;93947.34;;;16.11;50.33
6435;BME280;3250;42.694;23.278;2023-04-26T13:17:17;93936.72;;;16.11;50.84
6435;BME280;3250;42.694;23.278;2023-04-26T13:19:43;93951.06;;;16.15;50.92
6435;BME280;3250;42.694;23.278;2023-04-26T13:22:11;93949.22;;;16.16;50.67
6435;BME280;3250;42.694;23.278;2023-04-26T13:24:38;93937.78;;;16.20;49.66
6435;BME280;3250;42.694;23.278;2023-04-26T13:27:03;93959.53;;;16.22;48.86